createdAt,value
2019-05-17T10:30:40.094Z,7.25
2019-05-17T15:25:18.977Z,25.02
2019-05-17T15:30:23.133Z,21.97
2019-05-17T15:35:27.274Z,22.13
2019-05-17T15:40:31.393Z,23.38
2019-05-17T15:45:35.524Z,21.55
2019-05-17T15:50:39.657Z,19.55
2019-05-17T15:55:43.789Z,19.12
2019-05-17T16:00:47.909Z,15.05
2019-05-17T16:05:52.037Z,13.62
2019-05-17T16:10:56.161Z,13.40
2019-05-17T16:16:00.293Z,12.30
2019-05-17T16:21:04.490Z,11.75
2019-05-17T16:26:08.599Z,14.55
2019-05-17T16:31:12.732Z,13.22
2019-05-17T16:36:16.860Z,13.15
2019-05-17T16:41:20.979Z,13.35
2019-05-17T16:46:25.113Z,11.95
2019-05-17T16:51:29.307Z,11.18
2019-05-17T16:56:33.428Z,9.65
2019-05-17T17:01:37.583Z,9.23
2019-05-17T17:06:41.714Z,10.65
2019-05-17T17:11:45.898Z,11.15
2019-05-17T17:16:50.004Z,13.28
2019-05-17T17:21:54.135Z,13.53
2019-05-17T17:26:58.267Z,13.98
2019-05-17T17:32:02.394Z,14.80
2019-05-17T17:37:06.527Z,12.47
2019-05-17T17:42:10.656Z,12.37
2019-05-17T17:47:14.786Z,11.75
2019-05-17T17:52:18.911Z,12.65
2019-05-17T17:57:23.043Z,14.70
2019-05-17T18:02:27.164Z,15.25
2019-05-17T18:07:31.304Z,16.73
2019-05-17T18:12:35.428Z,16.82
2019-05-17T18:17:39.711Z,14.95
2019-05-17T18:22:43.964Z,14.63
2019-05-17T18:27:48.128Z,13.58
2019-05-17T18:32:52.247Z,8.75
2019-05-17T18:37:56.370Z,9.18
2019-05-17T18:43:00.496Z,10.85
2019-05-17T18:48:04.624Z,9.80
2019-05-17T18:53:16.528Z,9.48
2019-05-17T18:58:14.683Z,9.63
2019-05-17T19:03:18.809Z,8.75
2019-05-17T19:08:22.946Z,13.25
2019-05-17T19:13:27.078Z,10.13
2019-05-17T19:18:31.195Z,8.70
2019-05-17T19:23:35.323Z,9.73
2019-05-17T19:28:39.447Z,9.63
2019-05-17T19:33:43.567Z,9.78
2019-05-17T19:38:47.695Z,10.13
2019-05-17T19:43:51.826Z,10.30
2019-05-17T19:48:55.963Z,11.00
2019-05-17T19:54:00.078Z,9.25
2019-05-17T19:59:04.204Z,8.43
2019-05-17T20:04:08.334Z,7.33
2019-05-17T20:09:12.454Z,6.97
2019-05-17T20:14:16.583Z,7.35
2019-05-17T20:19:20.718Z,6.28
2019-05-17T20:24:24.899Z,6.22
2019-05-17T20:29:29.021Z,5.80
2019-05-17T20:34:33.143Z,5.95
2019-05-17T20:39:37.273Z,5.75
2019-05-17T20:44:41.387Z,5.58
2019-05-17T20:49:45.516Z,5.65
2019-05-17T20:54:49.808Z,5.33
2019-05-17T20:59:53.940Z,11.15
2019-05-17T21:04:58.079Z,12.95
2019-05-17T21:10:02.198Z,12.25
2019-05-17T21:15:07.956Z,12.35
2019-05-17T21:20:12.092Z,12.58
2019-05-17T21:25:16.489Z,13.70
2019-05-17T21:30:20.615Z,13.15
2019-05-17T21:35:24.743Z,13.80
2019-05-17T21:40:28.872Z,13.85
2019-05-17T21:45:32.992Z,14.40
2019-05-17T21:50:37.120Z,14.53
2019-05-17T21:55:41.250Z,15.03
2019-05-17T22:00:53.896Z,14.30
2019-05-17T22:05:58.036Z,15.10
2019-05-17T22:11:02.179Z,14.18
2019-05-17T22:16:18.614Z,14.07
2019-05-17T22:21:12.155Z,13.62
2019-05-17T22:26:16.281Z,14.10
2019-05-17T22:31:20.415Z,15.05
2019-05-17T22:36:24.540Z,15.58
2019-05-17T22:41:28.669Z,14.83
2019-05-17T22:46:36.228Z,15.05
2019-05-17T22:51:38.657Z,16.50
2019-05-17T22:56:42.775Z,16.12
2019-05-17T23:01:46.906Z,16.27
2019-05-17T23:06:51.034Z,16.15
2019-05-17T23:11:55.162Z,13.98
2019-05-17T23:16:59.288Z,14.15
2019-05-17T23:22:03.430Z,12.10
2019-05-17T23:27:07.547Z,11.55
2019-05-17T23:32:11.682Z,11.57
2019-05-17T23:37:15.805Z,11.00
2019-05-17T23:42:19.943Z,10.55
2019-05-17T23:47:24.071Z,9.90
2019-05-17T23:52:28.202Z,10.68
2019-05-17T23:57:32.325Z,10.53
